sensor_id;sensor_type;location;lat;lon;timestamp;pressure;altitude;pressure_sealevel;temperature;humidity
2791;BME280;31795;50.970;13.366;2022-08-19T00:00:19;97114.34;;;19.70;100.00
2791;BME280;31795;50.970;13.366;2022-08-19T00:02:28;97117.28;;;19.68;100.00
2791;BME280;31795;50.970;13.366;2022-08-19T00:04:35;97112.47;;;19.65;100.00
2791;BME280;31795;50.970;13.366;2022-08-19T00:06:45;97115.09;;;19.60;100.00
2791;BME280;31795;50.970;13.366;2022-08-19T00:08:52;97129.38;;;19.59;100.00
2791;BME280;31795;50.970;13.366;2022-08-19T00:11:12;97123.03;;;19.60;100.00
2791;BME280;31795;50.970;13.366;2022-08-19T00:13:35;97116.69;;;19.61;100.00
2791;BME280;31795;50.970;13.366;2022-08-19T00:15:43;97105.59;;;19.64;100.00
2791;BME280;31795;50.970;13.366;2022-08-19T00:17:49;97107.47;;;19.64;100.00
2791;BME280;31795;50.970;13.366;2022-08-19T00:20:13;97102.69;;;19.66;100.00
2791;BME280;31795;50.970;13.366;2022-08-19T00:22:36;97103.50;;;19.66;100.00
2791;BME280;31795;50.970;13.366;2022-08-19T00:24:43;97094.72;;;19.66;100.00
2791;BME280;31795;50.970;13.366;2022-08-19T00:26:52;97099.78;;;19.67;100.00
2791;BME280;31795;50.970;13.366;2022-08-19T00:28:58;97099.78;;;19.72;100.00
2791;BME280;31795;50.970;13.366;2022-08-19T00:31:09;97102.97;;;19.74;100.00
2791;BME280;31795;50.970;13.366;2022-08-19T00:33:23;97115.16;;;19.70;100.00
2791;BME280;31795;50.970;13.366;2022-08-19T00:35:38;97108.81;;;19.71;100.00
2791;BME280;31795;50.970;13.366;2022-08-19T00:38:01;97121.78;;;19.73;100.00
2791;BME280;31795;50.970;13.366;2022-08-19T00:40:09;97122.84;;;19.72;100.00
2791;BME280;31795;50.970;13.366;2022-08-19T00:42:19;97137.94;;;19.71;100.00
2791;BME280;31795;50.970;13.366;2022-08-19T00:44:37;97130.50;;;19.68;100.00
2791;BME280;31795;50.970;13.366;2022-08-19T00:47:08;97135.53;;;19.70;100.00
2791;BME280;31795;50.970;13.366;2022-08-19T00:49:22;97129.47;;;19.69;100.00
2791;BME280;31795;50.970;13.366;2022-08-19T00:51:30;97131.56;;;19.67;100.00
2791;BME280;31795;50.970;13.366;2022-08-19T00:53:37;97116.44;;;19.68;100.00
2791;BME280;31795;50.970;13.366;2022-08-19T00:55:48;97128.91;;;19.72;100.00
2791;BME280;31795;50.970;13.366;2022-08-19T00:57:59;97122.03;;;19.66;100.00
2791;BME280;31795;50.970;13.366;2022-08-19T01:00:08;97107.72;;;19.67;100.00
2791;BME280;31795;50.970;13.366;2022-08-19T01:02:16;97106.91;;;19.67;100.00
2791;BME280;31795;50.970;13.366;2022-08-19T01:04:22;97101.09;;;19.65;100.00
2791;BME280;31795;50.970;13.366;2022-08-19T01:06:30;97109.06;;;19.65;100.00
2791;BME280;31795;50.970;13.366;2022-08-19T01:08:42;97115.91;;;19.66;100.00
2791;BME280;31795;50.970;13.366;2022-08-19T01:10:52;97119.06;;;19.57;100.00
2791;BME280;31795;50.970;13.366;2022-08-19T01:13:01;97112.44;;;19.55;100.00
2791;BME280;31795;50.970;13.366;2022-08-19T01:18:21;97125.16;;;19.58;100.00
2791;BME280;31795;50.970;13.366;2022-08-19T01:20:28;97139.47;;;19.62;100.00
2791;BME280;31795;50.970;13.366;2022-08-19T01:22:46;97134.72;;;19.64;100.00
2791;BME280;31795;50.970;13.366;2022-08-19T01:25:08;97137.88;;;19.61;100.00
2791;BME280;31795;50.970;13.366;2022-08-19T01:27:17;97137.56;;;19.52;100.00
2791;BME280;31795;50.970;13.366;2022-08-19T01:29:31;97137.31;;;19.54;100.00
2791;BME280;31795;50.970;13.366;2022-08-19T01:31:48;97138.13;;;19.59;100.00
2791;BME280;31795;50.970;13.366;2022-08-19T01:34:00;97134.44;;;19.60;100.00
2791;BME280;31795;50.970;13.366;2022-08-19T01:36:13;97126.72;;;19.59;100.00
2791;BME280;31795;50.970;13.366;2022-08-19T01:38:24;97120.13;;;19.56;100.00
2791;BME280;31795;50.970;13.366;2022-08-19T01:40:33;97122.22;;;19.49;100.00
2791;BME280;31795;50.970;13.366;2022-08-19T01:42:40;97118.50;;;19.50;100.00
2791;BME280;31795;50.970;13.366;2022-08-19T01:44:46;97130.44;;;19.53;100.00
2791;BME280;31795;50.970;13.366;2022-08-19T01:46:54;97125.69;;;19.55;100.00
2791;BME280;31795;50.970;13.366;2022-08-19T01:49:03;97116.41;;;19.57;100.00
2791;BME280;31795;50.970;13.366;2022-08-19T01:51:14;97127.75;;;19.48;100.00
2791;BME280;31795;50.970;13.366;2022-08-19T01:53:29;97124.28;;;19.42;100.00
2791;BME280;31795;50.970;13.366;2022-08-19T01:55:41;97126.09;;;19.36;100.00
2791;BME280;31795;50.970;13.366;2022-08-19T01:57:51;97113.41;;;19.38;100.00
2791;BME280;31795;50.970;13.366;2022-08-19T01:59:58;97118.16;;;19.36;100.00
2791;BME280;31795;50.970;13.366;2022-08-19T02:02:10;97110.22;;;19.36;100.00
2791;BME280;31795;50.970;13.366;2022-08-19T02:04:18;97102.28;;;19.36;100.00
2791;BME280;31795;50.970;13.366;2022-08-19T02:06:26;97099.63;;;19.36;100.00
2791;BME280;31795;50.970;13.366;2022-08-19T02:08:43;97096.44;;;19.34;100.00
2791;BME280;31795;50.970;13.366;2022-08-19T02:10:53;97103.31;;;19.30;100.00
2791;BME280;31795;50.970;13.366;2022-08-19T02:12:59;97100.13;;;19.28;100.00
2791;BME280;31795;50.970;13.366;2022-08-19T02:15:12;97100.94;;;19.34;100.00
2791;BME280;31795;50.970;13.366;2022-08-19T02:17:18;97105.97;;;19.30;100.00
2791;BME280;31795;50.970;13.366;2022-08-19T02:19:25;97109.88;;;19.27;100.00
2791;BME280;31795;50.970;13.366;2022-08-19T02:21:35;97110.19;;;19.31;100.00
2791;BME280;31795;50.970;13.366;2022-08-19T02:24:00;97109.34;;;19.25;100.00
2791;BME280;31795;50.970;13.366;2022-08-19T02:26:06;97095.28;;;19.20;100.00
2791;BME280;31795;50.970;13.366;2022-08-19T02:28:15;97103.50;;;19.18;100.00
2791;BME280;31795;50.970;13.366;2022-08-19T02:30:22;97105.34;;;19.18;100.00
2791;BME280;31795;50.970;13.366;2022-08-19T02:32:43;97099.53;;;19.16;100.00
2791;BME280;31795;50.970;13.366;2022-08-19T02:34:53;97093.19;;;19.22;100.00
2791;BME280;31795;50.970;13.366;2022-08-19T02:37:01;97093.22;;;19.27;100.00
2791;BME280;31795;50.970;13.366;2022-08-19T02:39:28;97101.72;;;19.29;100.00
2791;BME280;31795;50.970;13.366;2022-08-19T02:41:36;97110.94;;;19.26;100.00
2791;BME280;31795;50.970;13.366;2022-08-19T02:43:43;97110.16;;;19.26;100.00
2791;BME280;31795;50.970;13.366;2022-08-19T02:45:52;97116.00;;;19.28;100.00
2791;BME280;31795;50.970;13.366;2022-08-19T02:48:05;97120.78;;;19.31;100.00
2791;BME280;31795;50.970;13.366;2022-08-19T02:50:12;97125.31;;;19.36;100.00
2791;BME280;31795;50.970;13.366;2022-08-19T02:52:33;97124.25;;;19.37;100.00
2791;BME280;31795;50.970;13.366;2022-08-19T02:54:43;97126.63;;;19.38;100.00
2791;BME280;31795;50.970;13.366;2022-08-19T02:56:51;97131.16;;;19.43;100.00
2791;BME280;31795;50.970;13.366;2022-08-19T02:58:57;97139.63;;;19.45;100.00
2791;BME280;31795;50.970;13.366;2022-08-19T03:01:05;97141.78;;;19.48;100.00
2791;BME280;31795;50.970;13.366;2022-08-19T03:03:26;97146.53;;;19.46;100.00
2791;BME280;31795;50.970;13.366;2022-08-19T03:05:33;97143.88;;;19.46;100.00
2791;BME280;31795;50.970;13.366;2022-08-19T03:07:39;97143.88;;;19.46;100.00
2791;BME280;31795;50.970;13.366;2022-08-19T03:09:47;97143.88;;;19.46;100.00
2791;BME280;31795;50.970;13.366;2022-08-19T03:11:59;97148.38;;;19.45;100.00
2791;BME280;31795;50.970;13.366;2022-08-19T03:14:09;97146.81;;;19.44;100.00
2791;BME280;31795;50.970;13.366;2022-08-19T03:16:19;97139.38;;;19.41;100.00
2791;BME280;31795;50.970;13.366;2022-08-19T03:18:26;97133.03;;;19.42;100.00
2791;BME280;31795;50.970;13.366;2022-08-19T03:20:45;97124.03;;;19.43;100.00
2791;BME280;31795;50.970;13.366;2022-08-19T03:22:52;97124.53;;;19.40;100.00
2791;BME280;31795;50.970;13.366;2022-08-19T03:25:09;97125.09;;;19.42;100.00
2791;BME280;31795;50.970;13.366;2022-08-19T03:27:30;97120.28;;;19.39;100.00
2791;BME280;31795;50.970;13.366;2022-08-19T03:29:56;97122.44;;;19.42;100.00
2791;BME280;31795;50.970;13.366;2022-08-19T03:32:05;97127.41;;;19.39;100.00
2791;BME280;31795;50.970;13.366;2022-08-19T03:34:21;97120.56;;;19.38;100.00
2791;BME280;31795;50.970;13.366;2022-08-19T03:36:30;97125.84;;;19.38;100.00
2791;BME280;31795;50.970;13.366;2022-08-19T03:38:39;97122.66;;;19.36;100.00
2791;BME280;31795;50.970;13.366;2022-08-19T03:40:58;97118.19;;;19.41;100.00
2791;BME280;31795;50.970;13.366;2022-08-19T03:43:08;97123.22;;;19.43;100.00
2791;BME280;31795;50.970;13.366;2022-08-19T03:45:14;97115.31;;;19.48;100.00
2791;BME280;31795;50.970;13.366;2022-08-19T03:47:37;97122.16;;;19.44;100.00
2791;BME280;31795;50.970;13.366;2022-08-19T03:49:58;97124.31;;;19.47;100.00
2791;BME280;31795;50.970;13.366;2022-08-19T03:52:04;97119.00;;;19.47;100.00
2791;BME280;31795;50.970;13.366;2022-08-19T03:54:26;97129.06;;;19.45;100.00
2791;BME280;31795;50.970;13.366;2022-08-19T03:56:49;97129.34;;;19.49;100.00
2791;BME280;31795;50.970;13.366;2022-08-19T03:58:59;97123.25;;;19.48;100.00
2791;BME280;31795;50.970;13.366;2022-08-19T04:01:07;97115.03;;;19.50;100.00
2791;BME280;31795;50.970;13.366;2022-08-19T04:03:20;97116.09;;;19.49;100.00
2791;BME280;31795;50.970;13.366;2022-08-19T04:05:27;97117.69;;;19.50;100.00
2791;BME280;31795;50.970;13.366;2022-08-19T04:07:43;97129.34;;;19.49;100.00
2791;BME280;31795;50.970;13.366;2022-08-19T04:09:55;97130.16;;;19.49;100.00
2791;BME280;31795;50.970;13.366;2022-08-19T04:12:16;97116.38;;;19.47;100.00
2791;BME280;31795;50.970;13.366;2022-08-19T04:14:34;97117.94;;;19.43;100.00
2791;BME280;31795;50.970;13.366;2022-08-19T04:16:43;97118.75;;;19.43;100.00
2791;BME280;31795;50.970;13.366;2022-08-19T04:18:51;97122.94;;;19.39;100.00
2791;BME280;31795;50.970;13.366;2022-08-19T04:20:58;97119.47;;;19.39;100.00
2791;BME280;31795;50.970;13.366;2022-08-19T04:23:12;97124.75;;;19.34;100.00
2791;BME280;31795;50.970;13.366;2022-08-19T04:25:19;97125.59;;;19.39;100.00
2791;BME280;31795;50.970;13.366;2022-08-19T04:27:28;97130.38;;;19.42;100.00
2791;BME280;31795;50.970;13.366;2022-08-19T04:29:39;97127.47;;;19.44;100.00
2791;BME280;31795;50.970;13.366;2022-08-19T04:31:46;97120.34;;;19.44;100.00
2791;BME280;31795;50.970;13.366;2022-08-19T04:33:57;97125.63;;;19.44;100.00
2791;BME280;31795;50.970;13.366;2022-08-19T04:36:16;97117.41;;;19.46;100.00
2791;BME280;31795;50.970;13.366;2022-08-19T04:38:29;97124.31;;;19.47;100.00
2791;BME280;31795;50.970;13.366;2022-08-19T04:40:49;97141.00;;;19.53;100.00
2791;BME280;31795;50.970;13.366;2022-08-19T04:43:17;97143.94;;;19.51;100.00
2791;BME280;31795;50.970;13.366;2022-08-19T04:45:30;97143.38;;;19.54;100.00
2791;BME280;31795;50.970;13.366;2022-08-19T04:47:41;97146.56;;;19.51;100.00
2791;BME280;31795;50.970;13.366;2022-08-19T04:49:48;97146.84;;;19.55;100.00
2791;BME280;31795;50.970;13.366;2022-08-19T04:51:55;97150.03;;;19.57;100.00
2791;BME280;31795;50.970;13.366;2022-08-19T04:54:04;97154.53;;;19.56;100.00
2791;BME280;31795;50.970;13.366;2022-08-19T04:56:12;97147.91;;;19.54;100.00
2791;BME280;31795;50.970;13.366;2022-08-19T04:58:20;97137.31;;;19.54;100.00
2791;BME280;31795;50.970;13.366;2022-08-19T05:00:27;97134.38;;;19.50;100.00
2791;BME280;31795;50.970;13.366;2022-08-19T05:02:39;97144.44;;;19.53;100.00
2791;BME280;31795;50.970;13.366;2022-08-19T05:04:46;97141.56;;;19.55;100.00
2791;BME280;31795;50.970;13.366;2022-08-19T05:06:53;97145.50;;;19.52;100.00
2791;BME280;31795;50.970;13.366;2022-08-19T05:09:00;97146.31;;;19.53;100.00
2791;BME280;31795;50.970;13.366;2022-08-19T05:11:11;97153.16;;;19.49;100.00
2791;BME280;31795;50.970;13.366;2022-08-19T05:13:20;97151.88;;;19.51;100.00
2791;BME280;31795;50.970;13.366;2022-08-19T05:15:26;97154.75;;;19.50;100.00
2791;BME280;31795;50.970;13.366;2022-08-19T05:20:44;97156.84;;;19.48;100.00
2791;BME280;31795;50.970;13.366;2022-08-19T05:23:17;97160.31;;;19.53;100.00
2791;BME280;31795;50.970;13.366;2022-08-19T05:25:33;97161.69;;;19.56;100.00
2791;BME280;31795;50.970;13.366;2022-08-19T05:27:51;97169.59;;;19.51;100.00
2791;BME280;31795;50.970;13.366;2022-08-19T05:30:07;97167.47;;;19.53;100.00
2791;BME280;31795;50.970;13.366;2022-08-19T05:32:13;97168.78;;;19.50;100.00
2791;BME280;31795;50.970;13.366;2022-08-19T05:34:24;97178.06;;;19.53;100.00
2791;BME280;31795;50.970;13.366;2022-08-19T05:36:52;97179.63;;;19.49;100.00
2791;BME280;31795;50.970;13.366;2022-08-19T05:39:05;97186.22;;;19.46;100.00
2791;BME280;31795;50.970;13.366;2022-08-19T05:41:16;97186.50;;;19.50;100.00
2791;BME280;31795;50.970;13.366;2022-08-19T05:43:27;97194.22;;;19.56;100.00
2791;BME280;31795;50.970;13.366;2022-08-19T05:45:45;97199.53;;;19.56;100.00
2791;BME280;31795;50.970;13.366;2022-08-19T05:47:51;97201.06;;;19.52;100.00
2791;BME280;31795;50.970;13.366;2022-08-19T05:50:08;97195.50;;;19.49;100.00
2791;BME280;31795;50.970;13.366;2022-08-19T05:52:15;97197.91;;;19.50;100.00
2791;BME280;31795;50.970;13.366;2022-08-19T05:54:22;97205.31;;;19.48;100.00
2791;BME280;31795;50.970;13.366;2022-08-19T05:56:35;97209.28;;;19.51;100.00
2791;BME280;31795;50.970;13.366;2022-08-19T05:58:44;97209.28;;;19.51;100.00
2791;BME280;31795;50.970;13.366;2022-08-19T06:00:53;97215.38;;;19.51;100.00
2791;BME280;31795;50.970;13.366;2022-08-19T06:03:00;97224.16;;;19.57;100.00
2791;BME280;31795;50.970;13.366;2022-08-19T06:05:09;97237.41;;;19.57;100.00
2791;BME280;31795;50.970;13.366;2022-08-19T06:07:16;97234.47;;;19.58;100.00
2791;BME280;31795;50.970;13.366;2022-08-19T06:09:23;97249.81;;;19.56;100.00
2791;BME280;31795;50.970;13.366;2022-08-19T06:11:54;97254.88;;;19.58;100.00
2791;BME280;31795;50.970;13.366;2022-08-19T06:14:17;97261.47;;;19.55;100.00
2791;BME280;31795;50.970;13.366;2022-08-19T06:16:30;97271.25;;;19.55;100.00
2791;BME280;31795;50.970;13.366;2022-08-19T06:18:40;97276.50;;;19.50;100.00
2791;BME280;31795;50.970;13.366;2022-08-19T06:20:50;97272.03;;;19.50;100.00
2791;BME280;31795;50.970;13.366;2022-08-19T06:22:56;97277.81;;;19.47;100.00
2791;BME280;31795;50.970;13.366;2022-08-19T06:25:11;97272.75;;;19.45;100.00
2791;BME280;31795;50.970;13.366;2022-08-19T06:27:17;97285.47;;;19.43;100.00
2791;BME280;31795;50.970;13.366;2022-08-19T06:29:44;97294.69;;;19.41;100.00
2791;BME280;31795;50.970;13.366;2022-08-19T06:32:01;97286.00;;;19.45;100.00
2791;BME280;31795;50.970;13.366;2022-08-19T06:34:08;97282.63;;;19.50;100.00
2791;BME280;31795;50.970;13.366;2022-08-19T06:36:40;97296.69;;;19.56;100.00
2791;BME280;31795;50.970;13.366;2022-08-19T06:38:47;97300.94;;;19.57;100.00
2791;BME280;31795;50.970;13.366;2022-08-19T06:41:07;97300.72;;;19.64;100.00
2791;BME280;31795;50.970;13.366;2022-08-19T06:43:20;97302.00;;;19.61;100.00
2791;BME280;31795;50.970;13.366;2022-08-19T06:45:27;97301.22;;;19.60;100.00
2791;BME280;31795;50.970;13.366;2022-08-19T06:48:15;97304.66;;;19.61;100.00
2791;BME280;31795;50.970;13.366;2022-08-19T06:50:23;97301.22;;;19.60;100.00
2791;BME280;31795;50.970;13.366;2022-08-19T06:52:29;97309.91;;;19.56;100.00
2791;BME280;31795;50.970;13.366;2022-08-19T06:54:42;97321.84;;;19.58;100.00
2791;BME280;31795;50.970;13.366;2022-08-19T06:56:49;97322.34;;;19.55;100.00
2791;BME280;31795;50.970;13.366;2022-08-19T06:59:02;97324.22;;;19.55;100.00
2791;BME280;31795;50.970;13.366;2022-08-19T07:01:28;97316.00;;;19.56;100.00
2791;BME280;31795;50.970;13.366;2022-08-19T07:03:43;97317.38;;;19.64;100.00
2791;BME280;31795;50.970;13.366;2022-08-19T07:05:54;97319.53;;;19.67;100.00
2791;BME280;31795;50.970;13.366;2022-08-19T07:08:01;97318.19;;;19.65;100.00
2791;BME280;31795;50.970;13.366;2022-08-19T07:10:22;97317.38;;;19.64;100.00
2791;BME280;31795;50.970;13.366;2022-08-19T07:12:31;97317.38;;;19.64;100.00
2791;BME280;31795;50.970;13.366;2022-08-19T07:14:39;97314.47;;;19.66;100.00
2791;BME280;31795;50.970;13.366;2022-08-19T07:16:49;97312.16;;;19.69;100.00
2791;BME280;31795;50.970;13.366;2022-08-19T07:18:58;97306.59;;;19.71;100.00
2791;BME280;31795;50.970;13.366;2022-08-19T07:21:09;97297.31;;;19.73;100.00
2791;BME280;31795;50.970;13.366;2022-08-19T07:23:16;97301.56;;;19.74;100.00
2791;BME280;31795;50.970;13.366;2022-08-19T07:25:27;97302.38;;;19.75;100.00
2791;BME280;31795;50.970;13.366;2022-08-19T07:27:36;97305.81;;;19.70;100.00
2791;BME280;31795;50.970;13.366;2022-08-19T07:29:45;97307.41;;;19.71;100.00
2791;BME280;31795;50.970;13.366;2022-08-19T07:31:54;97314.25;;;19.67;100.00
2791;BME280;31795;50.970;13.366;2022-08-19T07:34:13;97316.00;;;19.56;100.00
2791;BME280;31795;50.970;13.366;2022-08-19T07:36:22;97321.00;;;19.53;100.00
2791;BME280;31795;50.970;13.366;2022-08-19T07:38:29;97319.97;;;19.54;100.00
2791;BME280;31795;50.970;13.366;2022-08-19T07:40:38;97316.25;;;19.55;100.00
2791;BME280;31795;50.970;13.366;2022-08-19T07:42:47;97324.00;;;19.62;100.00
2791;BME280;31795;50.970;13.366;2022-08-19T07:45:12;97319.78;;;19.66;100.00
2791;BME280;31795;50.970;13.366;2022-08-19T07:47:21;97327.22;;;19.69;100.00
2791;BME280;31795;50.970;13.366;2022-08-19T07:49:38;97336.19;;;19.63;100.00
2791;BME280;31795;50.970;13.366;2022-08-19T07:51:47;97327.47;;;19.67;100.00
2791;BME280;31795;50.970;13.366;2022-08-19T07:53:57;97334.50;;;19.51;100.00
2791;BME280;31795;50.970;13.366;2022-08-19T07:56:06;97334.78;;;19.55;100.00
2791;BME280;31795;50.970;13.366;2022-08-19T07:58:19;97336.94;;;19.58;100.00
2791;BME280;31795;50.970;13.366;2022-08-19T08:00:36;97349.38;;;19.57;100.00
2791;BME280;31795;50.970;13.366;2022-08-19T08:02:51;97350.97;;;19.58;100.00
2791;BME280;31795;50.970;13.366;2022-08-19T08:05:05;97347.41;;;19.80;100.00
2791;BME280;31795;50.970;13.366;2022-08-19T08:07:29;97343.25;;;20.22;100.00
2791;BME280;31795;50.970;13.366;2022-08-19T08:10:08;97348.22;;;20.61;100.00
2791;BME280;31795;50.970;13.366;2022-08-19T08:12:17;97350.19;;;20.81;100.00
2791;BME280;31795;50.970;13.366;2022-08-19T08:14:27;97361.34;;;20.84;100.00
2791;BME280;31795;50.970;13.366;2022-08-19T08:16:38;97355.38;;;20.56;100.00
2791;BME280;31795;50.970;13.366;2022-08-19T08:18:48;97354.47;;;20.40;100.00
2791;BME280;31795;50.970;13.366;2022-08-19T08:20:56;97362.59;;;20.23;100.00
2791;BME280;31795;50.970;13.366;2022-08-19T08:23:03;97364.34;;;20.06;100.00
2791;BME280;31795;50.970;13.366;2022-08-19T08:25:34;97377.88;;;20.10;100.00
2791;BME280;31795;50.970;13.366;2022-08-19T08:27:45;97377.09;;;20.10;100.00
2791;BME280;31795;50.970;13.366;2022-08-19T08:29:54;97366.78;;;20.13;100.00
2791;BME280;31795;50.970;13.366;2022-08-19T08:32:01;97358.31;;;20.16;100.00
2791;BME280;31795;50.970;13.366;2022-08-19T08:34:13;97371.53;;;20.11;100.00
2791;BME280;31795;50.970;13.366;2022-08-19T08:36:21;97361.19;;;20.10;100.00
2791;BME280;31795;50.970;13.366;2022-08-19T08:38:30;97368.88;;;20.11;100.00
2791;BME280;31795;50.970;13.366;2022-08-19T08:40:46;97368.09;;;20.16;100.00
2791;BME280;31795;50.970;13.366;2022-08-19T08:42:57;97365.22;;;20.23;100.00
2791;BME280;31795;50.970;13.366;2022-08-19T08:45:13;97359.44;;;20.26;100.00
2791;BME280;31795;50.970;13.366;2022-08-19T08:47:30;97363.13;;;20.25;100.00
2791;BME280;31795;50.970;13.366;2022-08-19T08:49:50;97368.22;;;20.31;100.00
2791;BME280;31795;50.970;13.366;2022-08-19T08:52:11;97375.91;;;20.33;100.00
2791;BME280;31795;50.970;13.366;2022-08-19T08:54:20;97378.31;;;20.34;100.00
2791;BME280;31795;50.970;13.366;2022-08-19T08:56:31;97380.41;;;20.32;100.00
2791;BME280;31795;50.970;13.366;2022-08-19T08:59:03;97371.41;;;20.33;100.00
2791;BME280;31795;50.970;13.366;2022-08-19T09:01:21;97378.31;;;20.34;100.00
2791;BME280;31795;50.970;13.366;2022-08-19T09:03:28;97372.19;;;20.34;100.00
2791;BME280;31795;50.970;13.366;2022-08-19T09:05:59;97378.03;;;20.31;100.00
2791;BME280;31795;50.970;13.366;2022-08-19T09:08:17;97379.63;;;20.37;100.00
2791;BME280;31795;50.970;13.366;2022-08-19T09:10:29;97380.97;;;20.40;100.00
2791;BME280;31795;50.970;13.366;2022-08-19T09:12:43;97376.00;;;20.48;100.00
2791;BME280;31795;50.970;13.366;2022-08-19T09:15:01;97373.88;;;20.50;100.00
2791;BME280;31795;50.970;13.366;2022-08-19T09:17:11;97374.97;;;20.55;100.00
2791;BME280;31795;50.970;13.366;2022-08-19T09:19:21;97373.94;;;20.61;100.00
2791;BME280;31795;50.970;13.366;2022-08-19T09:21:34;97373.38;;;20.54;100.00
2791;BME280;31795;50.970;13.366;2022-08-19T09:23:43;97365.13;;;20.50;100.00
2791;BME280;31795;50.970;13.366;2022-08-19T09:25:58;97372.56;;;20.53;100.00
2791;BME280;31795;50.970;13.366;2022-08-19T09:28:04;97368.84;;;20.54;100.00
2791;BME280;31795;50.970;13.366;2022-08-19T09:30:29;97365.16;;;20.55;100.00
2791;BME280;31795;50.970;13.366;2022-08-19T09:32:55;97372.56;;;20.53;100.00
2791;BME280;31795;50.970;13.366;2022-08-19T09:35:15;97364.69;;;20.63;100.00
2791;BME280;31795;50.970;13.366;2022-08-19T09:37:22;97357.00;;;20.67;100.00
2791;BME280;31795;50.970;13.366;2022-08-19T09:39:33;97353.53;;;20.61;100.00
2791;BME280;31795;50.970;13.366;2022-08-19T09:41:40;97345.13;;;20.75;100.00
2791;BME280;31795;50.970;13.366;2022-08-19T09:43:57;97341.88;;;20.67;100.00
2791;BME280;31795;50.970;13.366;2022-08-19T09:46:05;97339.75;;;20.70;100.00
2791;BME280;31795;50.970;13.366;2022-08-19T09:48:17;97356.72;;;20.68;100.00
2791;BME280;31795;50.970;13.366;2022-08-19T09:50:25;97359.44;;;20.79;100.00
2791;BME280;31795;50.970;13.366;2022-08-19T09:52:35;97356.28;;;20.77;100.00
2791;BME280;31795;50.970;13.366;2022-08-19T09:54:52;97363.69;;;20.75;100.00
2791;BME280;31795;50.970;13.366;2022-08-19T09:57:05;97361.78;;;20.70;100.00
2791;BME280;31795;50.970;13.366;2022-08-19T09:59:15;97363.69;;;20.75;100.00
2791;BME280;31795;50.970;13.366;2022-08-19T10:01:42;97364.91;;;20.62;100.00
2791;BME280;31795;50.970;13.366;2022-08-19T10:03:50;97370.50;;;20.65;100.00
2791;BME280;31795;50.970;13.366;2022-08-19T10:06:00;97356.22;;;20.72;100.00
2791;BME280;31795;50.970;13.366;2022-08-19T10:08:08;97362.31;;;20.72;100.00
2791;BME280;31795;50.970;13.366;2022-08-19T10:10:35;97361.44;;;21.09;100.00
2791;BME280;31795;50.970;13.366;2022-08-19T10:12:42;97355.91;;;21.47;100.00
2791;BME280;31795;50.970;13.366;2022-08-19T10:14:52;97361.53;;;21.71;100.00
2791;BME280;31795;50.970;13.366;2022-08-19T10:17:02;97360.75;;;21.81;100.00
2791;BME280;31795;50.970;13.366;2022-08-19T10:19:09;97365.00;;;21.77;100.00
2791;BME280;31795;50.970;13.366;2022-08-19T10:21:18;97364.19;;;21.82;100.00
2791;BME280;31795;50.970;13.366;2022-08-19T10:23:28;97365.22;;;22.12;100.00
2791;BME280;31795;50.970;13.366;2022-08-19T10:25:38;97369.47;;;22.08;100.00
2791;BME280;31795;50.970;13.366;2022-08-19T10:27:50;97375.63;;;22.08;100.00
2791;BME280;31795;50.970;13.366;2022-08-19T10:29:57;97378.53;;;21.96;100.00
2791;BME280;31795;50.970;13.366;2022-08-19T10:32:09;97375.59;;;21.98;100.00
2791;BME280;31795;50.970;13.366;2022-08-19T10:34:16;97376.34;;;22.40;100.00
2791;BME280;31795;50.970;13.366;2022-08-19T10:36:25;97376.63;;;22.43;100.00
2791;BME280;31795;50.970;13.366;2022-08-19T10:38:32;97369.44;;;22.49;100.00
2791;BME280;31795;50.970;13.366;2022-08-19T10:41:05;97368.13;;;22.46;100.00
2791;BME280;31795;50.970;13.366;2022-08-19T10:43:21;97365.97;;;22.59;100.00
2791;BME280;31795;50.970;13.366;2022-08-19T10:45:27;97366.22;;;22.57;100.00
2791;BME280;31795;50.970;13.366;2022-08-19T10:47:34;97369.19;;;22.30;100.00
2791;BME280;31795;50.970;13.366;2022-08-19T10:49:43;97380.38;;;22.16;100.00
2791;BME280;31795;50.970;13.366;2022-08-19T10:52:18;97391.53;;;22.34;100.00
2791;BME280;31795;50.970;13.366;2022-08-19T10:54:45;97389.41;;;22.20;100.00
2791;BME280;31795;50.970;13.366;2022-08-19T10:57:11;97405.91;;;22.17;100.00
2791;BME280;31795;50.970;13.366;2022-08-19T10:59:25;97403.44;;;22.68;100.00
2791;BME280;31795;50.970;13.366;2022-08-19T11:01:34;97412.16;;;22.89;100.00
2791;BME280;31795;50.970;13.366;2022-08-19T11:03:41;97406.00;;;22.93;100.00
2791;BME280;31795;50.970;13.366;2022-08-19T11:08:32;97395.25;;;22.48;100.00
2791;BME280;31795;50.970;13.366;2022-08-19T11:10:45;97398.72;;;22.28;100.00
2791;BME280;31795;50.970;13.366;2022-08-19T11:12:54;97394.44;;;22.22;100.00
2791;BME280;31795;50.970;13.366;2022-08-19T11:15:01;97400.31;;;21.98;100.00
2791;BME280;31795;50.970;13.366;2022-08-19T11:17:10;97397.66;;;21.93;100.00
2791;BME280;31795;50.970;13.366;2022-08-19T11:19:24;97395.53;;;22.26;100.00
2791;BME280;31795;50.970;13.366;2022-08-19T11:21:33;97399.75;;;22.38;100.00
2791;BME280;31795;50.970;13.366;2022-08-19T11:23:40;97414.41;;;22.45;100.00
2791;BME280;31795;50.970;13.366;2022-08-19T11:25:47;97419.41;;;22.31;100.00
2791;BME280;31795;50.970;13.366;2022-08-19T11:27:55;97421.28;;;22.26;100.00
2791;BME280;31795;50.970;13.366;2022-08-19T11:30:18;97424.50;;;22.02;100.00
2791;BME280;31795;50.970;13.366;2022-08-19T11:32:31;97421.84;;;21.76;100.00
2791;BME280;31795;50.970;13.366;2022-08-19T11:34:47;97434.31;;;21.60;100.00
2791;BME280;31795;50.970;13.366;2022-08-19T11:36:55;97423.38;;;21.56;100.00
2791;BME280;31795;50.970;13.366;2022-08-19T11:39:04;97429.72;;;21.45;100.00
2791;BME280;31795;50.970;13.366;2022-08-19T11:41:14;97424.66;;;21.43;100.00